sensor_id;sensor_type;location;lat;lon;timestamp;temperature;humidity
66740;DHT22;53653;52.188;8.602;2023-07-31T00:01:18;16.32;90.77
66740;DHT22;53653;52.188;8.602;2023-07-31T00:03:45;16.41;90.44
66740;DHT22;53653;52.188;8.602;2023-07-31T00:06:11;16.42;90.41
66740;DHT22;53653;52.188;8.602;2023-07-31T00:08:36;16.49;90.20
66740;DHT22;53653;52.188;8.602;2023-07-31T00:11:02;16.42;90.59
66740;DHT22;53653;52.188;8.602;2023-07-31T00:13:27;16.35;90.91
66740;DHT22;53653;52.188;8.602;2023-07-31T00:15:52;16.17;91.73
66740;DHT22;53653;52.188;8.602;2023-07-31T00:18:18;16.36;91.11
66740;DHT22;53653;52.188;8.602;2023-07-31T00:20:43;16.38;91.05
66740;DHT22;53653;52.188;8.602;2023-07-31T00:23:09;16.35;91.24
66740;DHT22;53653;52.188;8.602;2023-07-31T00:25:34;16.29;91.34
66740;DHT22;53653;52.188;8.602;2023-07-31T00:28:00;16.29;91.76
66740;DHT22;53653;52.188;8.602;2023-07-31T00:30:25;16.33;91.78
66740;DHT22;53653;52.188;8.602;2023-07-31T00:32:53;16.36;91.21
66740;DHT22;53653;52.188;8.602;2023-07-31T00:35:18;16.39;91.37
66740;DHT22;53653;52.188;8.602;2023-07-31T00:37:44;16.41;91.21
66740;DHT22;53653;52.188;8.602;2023-07-31T00:40:10;16.35;91.67
66740;DHT22;53653;52.188;8.602;2023-07-31T00:42:36;16.36;91.76
66740;DHT22;53653;52.188;8.602;2023-07-31T00:45:01;16.41;91.63
66740;DHT22;53653;52.188;8.602;2023-07-31T00:47:29;16.32;91.90
66740;DHT22;53653;52.188;8.602;2023-07-31T00:49:55;16.26;92.26
66740;DHT22;53653;52.188;8.602;2023-07-31T00:52:21;16.35;91.93
66740;DHT22;53653;52.188;8.602;2023-07-31T00:54:48;16.42;91.74
66740;DHT22;53653;52.188;8.602;2023-07-31T00:57:14;16.42;91.63
66740;DHT22;53653;52.188;8.602;2023-07-31T00:59:40;16.28;92.18
66740;DHT22;53653;52.188;8.602;2023-07-31T01:02:07;16.35;91.82
66740;DHT22;53653;52.188;8.602;2023-07-31T01:04:32;16.36;91.67
66740;DHT22;53653;52.188;8.602;2023-07-31T01:10:04;16.38;91.77
66740;DHT22;53653;52.188;8.602;2023-07-31T01:12:34;16.41;91.53
66740;DHT22;53653;52.188;8.602;2023-07-31T01:15:07;16.33;91.95
66740;DHT22;53653;52.188;8.602;2023-07-31T01:17:37;16.33;91.93
66740;DHT22;53653;52.188;8.602;2023-07-31T01:20:05;16.33;91.85
66740;DHT22;53653;52.188;8.602;2023-07-31T01:22:39;16.35;91.81
66740;DHT22;53653;52.188;8.602;2023-07-31T01:25:15;16.39;91.55
66740;DHT22;53653;52.188;8.602;2023-07-31T01:28:10;16.41;91.52
66740;DHT22;53653;52.188;8.602;2023-07-31T01:30:41;16.35;91.73
66740;DHT22;53653;52.188;8.602;2023-07-31T01:33:08;16.26;91.51
66740;DHT22;53653;52.188;8.602;2023-07-31T01:35:35;16.22;91.43
66740;DHT22;53653;52.188;8.602;2023-07-31T01:38:01;16.24;91.56
66740;DHT22;53653;52.188;8.602;2023-07-31T01:40:27;16.17;91.59
66740;DHT22;53653;52.188;8.602;2023-07-31T01:42:52;16.22;91.48
66740;DHT22;53653;52.188;8.602;2023-07-31T01:45:18;16.24;91.21
66740;DHT22;53653;52.188;8.602;2023-07-31T01:47:43;16.24;91.03
66740;DHT22;53653;52.188;8.602;2023-07-31T01:50:11;16.18;90.88
66740;DHT22;53653;52.188;8.602;2023-07-31T01:52:36;16.21;90.91
66740;DHT22;53653;52.188;8.602;2023-07-31T01:55:02;16.17;90.73
66740;DHT22;53653;52.188;8.602;2023-07-31T01:57:27;16.17;90.69
66740;DHT22;53653;52.188;8.602;2023-07-31T01:59:53;16.15;90.58
66740;DHT22;53653;52.188;8.602;2023-07-31T02:02:22;16.08;90.48
66740;DHT22;53653;52.188;8.602;2023-07-31T02:04:51;16.02;90.59
66740;DHT22;53653;52.188;8.602;2023-07-31T02:07:16;16.01;90.46
66740;DHT22;53653;52.188;8.602;2023-07-31T02:09:42;16.02;90.38
66740;DHT22;53653;52.188;8.602;2023-07-31T02:12:07;15.93;90.48
66740;DHT22;53653;52.188;8.602;2023-07-31T02:14:36;15.94;90.27
66740;DHT22;53653;52.188;8.602;2023-07-31T02:17:02;15.83;90.49
66740;DHT22;53653;52.188;8.602;2023-07-31T02:19:27;15.80;90.47
66740;DHT22;53653;52.188;8.602;2023-07-31T02:21:52;15.83;90.42
66740;DHT22;53653;52.188;8.602;2023-07-31T02:24:18;15.77;90.43
66740;DHT22;53653;52.188;8.602;2023-07-31T02:26:43;15.77;90.66
66740;DHT22;53653;52.188;8.602;2023-07-31T02:29:09;15.73;90.39
66740;DHT22;53653;52.188;8.602;2023-07-31T02:31:35;15.67;90.73
66740;DHT22;53653;52.188;8.602;2023-07-31T02:34:00;15.64;90.76
66740;DHT22;53653;52.188;8.602;2023-07-31T02:36:26;15.63;90.69
66740;DHT22;53653;52.188;8.602;2023-07-31T02:38:51;15.60;90.44
66740;DHT22;53653;52.188;8.602;2023-07-31T02:41:17;15.59;90.36
66740;DHT22;53653;52.188;8.602;2023-07-31T02:43:42;15.60;89.77
66740;DHT22;53653;52.188;8.602;2023-07-31T02:46:08;15.54;90.16
66740;DHT22;53653;52.188;8.602;2023-07-31T02:48:34;15.47;90.87
66740;DHT22;53653;52.188;8.602;2023-07-31T02:50:59;15.42;91.13
66740;DHT22;53653;52.188;8.602;2023-07-31T02:53:24;15.31;91.53
66740;DHT22;53653;52.188;8.602;2023-07-31T02:55:50;15.38;91.69
66740;DHT22;53653;52.188;8.602;2023-07-31T02:58:15;15.25;92.23
66740;DHT22;53653;52.188;8.602;2023-07-31T03:00:44;15.29;92.54
66740;DHT22;53653;52.188;8.602;2023-07-31T03:03:10;15.29;92.68
66740;DHT22;53653;52.188;8.602;2023-07-31T03:05:35;15.35;92.48
66740;DHT22;53653;52.188;8.602;2023-07-31T03:08:01;15.43;92.20
66740;DHT22;53653;52.188;8.602;2023-07-31T03:10:27;15.43;92.23
66740;DHT22;53653;52.188;8.602;2023-07-31T03:12:52;15.46;92.21
66740;DHT22;53653;52.188;8.602;2023-07-31T03:15:18;15.43;92.61
66740;DHT22;53653;52.188;8.602;2023-07-31T03:17:43;15.40;92.35
66740;DHT22;53653;52.188;8.602;2023-07-31T03:20:09;15.33;92.66
66740;DHT22;53653;52.188;8.602;2023-07-31T03:22:35;15.29;93.09
66740;DHT22;53653;52.188;8.602;2023-07-31T03:25:04;15.23;93.32
66740;DHT22;53653;52.188;8.602;2023-07-31T03:27:29;15.21;93.79
66740;DHT22;53653;52.188;8.602;2023-07-31T03:29:56;15.19;93.95
66740;DHT22;53653;52.188;8.602;2023-07-31T03:32:21;15.18;93.94
66740;DHT22;53653;52.188;8.602;2023-07-31T03:34:47;15.02;94.29
66740;DHT22;53653;52.188;8.602;2023-07-31T03:37:12;15.11;94.48
66740;DHT22;53653;52.188;8.602;2023-07-31T03:39:38;15.02;94.76
66740;DHT22;53653;52.188;8.602;2023-07-31T03:42:03;15.01;95.01
66740;DHT22;53653;52.188;8.602;2023-07-31T03:44:29;15.04;95.09
66740;DHT22;53653;52.188;8.602;2023-07-31T03:46:54;15.19;94.50
66740;DHT22;53653;52.188;8.602;2023-07-31T03:49:20;15.19;94.82
66740;DHT22;53653;52.188;8.602;2023-07-31T03:51:46;15.39;94.14
66740;DHT22;53653;52.188;8.602;2023-07-31T03:54:11;15.46;94.11
66740;DHT22;53653;52.188;8.602;2023-07-31T03:56:38;15.53;94.00
66740;DHT22;53653;52.188;8.602;2023-07-31T03:59:04;15.64;93.91
66740;DHT22;53653;52.188;8.602;2023-07-31T04:01:29;15.69;94.04
66740;DHT22;53653;52.188;8.602;2023-07-31T04:03:55;15.79;94.08
66740;DHT22;53653;52.188;8.602;2023-07-31T04:06:20;15.80;94.19
66740;DHT22;53653;52.188;8.602;2023-07-31T04:08:46;15.80;94.34
66740;DHT22;53653;52.188;8.602;2023-07-31T04:11:11;15.83;94.54
66740;DHT22;53653;52.188;8.602;2023-07-31T04:13:38;15.90;94.46
66740;DHT22;53653;52.188;8.602;2023-07-31T04:16:03;15.98;94.33
66740;DHT22;53653;52.188;8.602;2023-07-31T04:18:29;16.01;94.48
66740;DHT22;53653;52.188;8.602;2023-07-31T04:20:56;15.98;94.54
66740;DHT22;53653;52.188;8.602;2023-07-31T04:23:24;16.02;94.47
66740;DHT22;53653;52.188;8.602;2023-07-31T04:25:49;16.05;94.46
66740;DHT22;53653;52.188;8.602;2023-07-31T04:28:15;16.02;94.56
66740;DHT22;53653;52.188;8.602;2023-07-31T04:30:40;16.01;94.74
66740;DHT22;53653;52.188;8.602;2023-07-31T04:33:06;16.08;94.62
66740;DHT22;53653;52.188;8.602;2023-07-31T04:35:31;16.11;94.74
66740;DHT22;53653;52.188;8.602;2023-07-31T04:37:57;16.14;94.65
66740;DHT22;53653;52.188;8.602;2023-07-31T04:40:22;16.12;94.52
66740;DHT22;53653;52.188;8.602;2023-07-31T04:42:48;16.12;94.29
66740;DHT22;53653;52.188;8.602;2023-07-31T04:45:14;16.17;94.16
66740;DHT22;53653;52.188;8.602;2023-07-31T04:47:39;16.17;94.04
66740;DHT22;53653;52.188;8.602;2023-07-31T04:50:05;16.10;93.89
66740;DHT22;53653;52.188;8.602;2023-07-31T04:52:31;16.11;94.18
66740;DHT22;53653;52.188;8.602;2023-07-31T04:54:56;16.15;93.82
66740;DHT22;53653;52.188;8.602;2023-07-31T04:57:22;16.17;93.79
66740;DHT22;53653;52.188;8.602;2023-07-31T04:59:48;16.21;93.92
66740;DHT22;53653;52.188;8.602;2023-07-31T05:02:13;16.14;93.87
66740;DHT22;53653;52.188;8.602;2023-07-31T05:04:39;16.12;93.93
66740;DHT22;53653;52.188;8.602;2023-07-31T05:07:05;16.17;93.79
66740;DHT22;53653;52.188;8.602;2023-07-31T05:09:30;16.18;93.77
66740;DHT22;53653;52.188;8.602;2023-07-31T05:11:56;16.15;93.73
66740;DHT22;53653;52.188;8.602;2023-07-31T05:14:25;16.17;93.65
66740;DHT22;53653;52.188;8.602;2023-07-31T05:16:53;16.12;93.74
66740;DHT22;53653;52.188;8.602;2023-07-31T05:19:19;16.05;93.86
66740;DHT22;53653;52.188;8.602;2023-07-31T05:21:45;16.04;93.83
66740;DHT22;53653;52.188;8.602;2023-07-31T05:24:11;16.05;93.63
66740;DHT22;53653;52.188;8.602;2023-07-31T05:26:37;16.12;93.54
66740;DHT22;53653;52.188;8.602;2023-07-31T05:29:03;16.15;93.46
66740;DHT22;53653;52.188;8.602;2023-07-31T05:31:29;16.11;93.33
66740;DHT22;53653;52.188;8.602;2023-07-31T05:33:54;16.11;93.01
66740;DHT22;53653;52.188;8.602;2023-07-31T05:36:20;16.15;92.87
66740;DHT22;53653;52.188;8.602;2023-07-31T05:38:45;16.18;92.50
66740;DHT22;53653;52.188;8.602;2023-07-31T05:41:12;16.08;92.47
66740;DHT22;53653;52.188;8.602;2023-07-31T05:43:37;16.10;92.16
66740;DHT22;53653;52.188;8.602;2023-07-31T05:46:03;16.14;92.26
66740;DHT22;53653;52.188;8.602;2023-07-31T05:48:29;16.20;92.08
66740;DHT22;53653;52.188;8.602;2023-07-31T05:50:54;16.17;91.88
66740;DHT22;53653;52.188;8.602;2023-07-31T05:53:20;16.14;91.74
66740;DHT22;53653;52.188;8.602;2023-07-31T05:55:45;16.15;91.93
66740;DHT22;53653;52.188;8.602;2023-07-31T05:58:11;16.15;91.47
66740;DHT22;53653;52.188;8.602;2023-07-31T06:00:36;16.22;91.19
66740;DHT22;53653;52.188;8.602;2023-07-31T06:03:02;16.20;90.83
66740;DHT22;53653;52.188;8.602;2023-07-31T06:05:28;16.22;90.82
66740;DHT22;53653;52.188;8.602;2023-07-31T06:07:55;16.26;90.87
66740;DHT22;53653;52.188;8.602;2023-07-31T06:10:21;16.26;90.89
66740;DHT22;53653;52.188;8.602;2023-07-31T06:12:47;16.28;90.95
66740;DHT22;53653;52.188;8.602;2023-07-31T06:15:12;16.35;90.63
66740;DHT22;53653;52.188;8.602;2023-07-31T06:17:38;16.31;90.44
66740;DHT22;53653;52.188;8.602;2023-07-31T06:20:05;16.32;90.49
66740;DHT22;53653;52.188;8.602;2023-07-31T06:22:31;16.33;90.53
66740;DHT22;53653;52.188;8.602;2023-07-31T06:24:57;16.29;90.55
66740;DHT22;53653;52.188;8.602;2023-07-31T06:27:23;16.32;90.70
66740;DHT22;53653;52.188;8.602;2023-07-31T06:29:48;16.31;90.44
66740;DHT22;53653;52.188;8.602;2023-07-31T06:32:14;16.32;90.62
66740;DHT22;53653;52.188;8.602;2023-07-31T06:34:40;16.33;90.72
66740;DHT22;53653;52.188;8.602;2023-07-31T06:37:05;16.31;90.86
66740;DHT22;53653;52.188;8.602;2023-07-31T06:39:31;16.31;90.67
66740;DHT22;53653;52.188;8.602;2023-07-31T06:41:56;16.33;90.89
66740;DHT22;53653;52.188;8.602;2023-07-31T06:44:22;16.35;90.85
66740;DHT22;53653;52.188;8.602;2023-07-31T06:46:48;16.36;90.83
66740;DHT22;53653;52.188;8.602;2023-07-31T06:49:13;16.32;90.94
66740;DHT22;53653;52.188;8.602;2023-07-31T06:51:41;16.31;90.96
66740;DHT22;53653;52.188;8.602;2023-07-31T06:54:10;16.33;91.02
66740;DHT22;53653;52.188;8.602;2023-07-31T06:56:36;16.33;91.08
66740;DHT22;53653;52.188;8.602;2023-07-31T06:59:03;16.33;90.95
66740;DHT22;53653;52.188;8.602;2023-07-31T07:01:28;16.33;91.31
66740;DHT22;53653;52.188;8.602;2023-07-31T07:03:54;16.31;91.23
66740;DHT22;53653;52.188;8.602;2023-07-31T07:06:21;16.44;91.09
66740;DHT22;53653;52.188;8.602;2023-07-31T07:08:48;16.52;91.10
66740;DHT22;53653;52.188;8.602;2023-07-31T07:11:14;16.60;90.76
66740;DHT22;53653;52.188;8.602;2023-07-31T07:13:40;16.65;90.87
66740;DHT22;53653;52.188;8.602;2023-07-31T07:16:05;16.72;90.58
66740;DHT22;53653;52.188;8.602;2023-07-31T07:18:31;16.81;90.52
66740;DHT22;53653;52.188;8.602;2023-07-31T07:21:00;16.91;90.24
66740;DHT22;53653;52.188;8.602;2023-07-31T07:23:27;17.03;90.01
66740;DHT22;53653;52.188;8.602;2023-07-31T07:25:53;16.99;89.95
66740;DHT22;53653;52.188;8.602;2023-07-31T07:28:20;16.99;90.19
66740;DHT22;53653;52.188;8.602;2023-07-31T07:30:51;17.04;89.89
66740;DHT22;53653;52.188;8.602;2023-07-31T07:33:19;17.07;89.85
66740;DHT22;53653;52.188;8.602;2023-07-31T07:35:45;17.03;90.22
66740;DHT22;53653;52.188;8.602;2023-07-31T07:38:14;17.00;90.43
66740;DHT22;53653;52.188;8.602;2023-07-31T07:40:40;16.96;90.43
66740;DHT22;53653;52.188;8.602;2023-07-31T07:43:06;16.93;90.91
66740;DHT22;53653;52.188;8.602;2023-07-31T07:45:31;16.81;90.84
66740;DHT22;53653;52.188;8.602;2023-07-31T07:47:57;16.76;91.31
66740;DHT22;53653;52.188;8.602;2023-07-31T07:50:24;16.79;91.65
66740;DHT22;53653;52.188;8.602;2023-07-31T07:52:50;16.79;91.55
66740;DHT22;53653;52.188;8.602;2023-07-31T07:55:15;16.75;91.59
66740;DHT22;53653;52.188;8.602;2023-07-31T07:57:41;16.72;92.03
66740;DHT22;53653;52.188;8.602;2023-07-31T08:00:07;16.73;92.12
66740;DHT22;53653;52.188;8.602;2023-07-31T08:02:41;16.70;91.94
66740;DHT22;53653;52.188;8.602;2023-07-31T08:05:07;16.69;92.12
66740;DHT22;53653;52.188;8.602;2023-07-31T08:07:33;16.68;92.34
66740;DHT22;53653;52.188;8.602;2023-07-31T08:09:59;16.69;92.46
66740;DHT22;53653;52.188;8.602;2023-07-31T08:12:24;16.75;92.21
66740;DHT22;53653;52.188;8.602;2023-07-31T08:14:50;16.70;92.57
66740;DHT22;53653;52.188;8.602;2023-07-31T08:17:17;16.70;92.30
66740;DHT22;53653;52.188;8.602;2023-07-31T08:19:43;16.75;92.48
66740;DHT22;53653;52.188;8.602;2023-07-31T08:22:09;16.91;92.30
66740;DHT22;53653;52.188;8.602;2023-07-31T08:24:35;16.99;92.18
66740;DHT22;53653;52.188;8.602;2023-07-31T08:27:00;16.96;92.08
66740;DHT22;53653;52.188;8.602;2023-07-31T08:29:26;17.04;91.82
66740;DHT22;53653;52.188;8.602;2023-07-31T08:31:52;17.00;91.90
66740;DHT22;53653;52.188;8.602;2023-07-31T08:34:18;17.07;91.76
66740;DHT22;53653;52.188;8.602;2023-07-31T08:36:43;17.10;91.76
66740;DHT22;53653;52.188;8.602;2023-07-31T08:39:10;17.17;92.06
66740;DHT22;53653;52.188;8.602;2023-07-31T08:41:39;17.16;91.96
66740;DHT22;53653;52.188;8.602;2023-07-31T08:44:07;17.26;92.03
66740;DHT22;53653;52.188;8.602;2023-07-31T08:46:33;17.26;91.85
66740;DHT22;53653;52.188;8.602;2023-07-31T08:49:00;17.35;91.95
66740;DHT22;53653;52.188;8.602;2023-07-31T08:51:29;17.38;92.06
66740;DHT22;53653;52.188;8.602;2023-07-31T08:53:55;17.47;91.78
66740;DHT22;53653;52.188;8.602;2023-07-31T08:56:23;17.47;91.50
66740;DHT22;53653;52.188;8.602;2023-07-31T08:58:49;17.44;91.72
66740;DHT22;53653;52.188;8.602;2023-07-31T09:01:16;17.44;91.39
66740;DHT22;53653;52.188;8.602;2023-07-31T09:03:43;17.54;91.47
66740;DHT22;53653;52.188;8.602;2023-07-31T09:06:09;17.55;91.27
66740;DHT22;53653;52.188;8.602;2023-07-31T09:08:37;17.72;91.40
66740;DHT22;53653;52.188;8.602;2023-07-31T09:11:04;17.78;91.09
66740;DHT22;53653;52.188;8.602;2023-07-31T09:13:32;17.82;91.00
66740;DHT22;53653;52.188;8.602;2023-07-31T09:15:58;17.76;91.00
66740;DHT22;53653;52.188;8.602;2023-07-31T09:18:24;17.72;91.69
66740;DHT22;53653;52.188;8.602;2023-07-31T09:23:41;17.74;91.89
66740;DHT22;53653;52.188;8.602;2023-07-31T09:26:07;17.75;91.55
66740;DHT22;53653;52.188;8.602;2023-07-31T09:28:33;17.75;91.55
66740;DHT22;53653;52.188;8.602;2023-07-31T09:30:58;17.71;92.19
66740;DHT22;53653;52.188;8.602;2023-07-31T09:33:24;17.78;92.12
66740;DHT22;53653;52.188;8.602;2023-07-31T09:35:50;17.86;91.52
66740;DHT22;53653;52.188;8.602;2023-07-31T09:38:16;17.85;91.70
66740;DHT22;53653;52.188;8.602;2023-07-31T09:40:44;17.86;91.55
66740;DHT22;53653;52.188;8.602;2023-07-31T09:43:11;17.93;91.16
66740;DHT22;53653;52.188;8.602;2023-07-31T09:45:39;17.90;91.76
66740;DHT22;53653;52.188;8.602;2023-07-31T09:48:09;17.81;91.09
66740;DHT22;53653;52.188;8.602;2023-07-31T09:50:37;17.87;91.56
66740;DHT22;53653;52.188;8.602;2023-07-31T09:53:04;17.89;91.18
66740;DHT22;53653;52.188;8.602;2023-07-31T09:55:30;17.79;91.05
66740;DHT22;53653;52.188;8.602;2023-07-31T09:57:57;17.79;91.02
66740;DHT22;53653;52.188;8.602;2023-07-31T10:00:23;17.87;90.92
66740;DHT22;53653;52.188;8.602;2023-07-31T10:02:52;17.89;90.71
66740;DHT22;53653;52.188;8.602;2023-07-31T10:05:19;17.95;90.75
66740;DHT22;53653;52.188;8.602;2023-07-31T10:07:54;17.86;90.11
66740;DHT22;53653;52.188;8.602;2023-07-31T10:10:22;17.83;90.89
66740;DHT22;53653;52.188;8.602;2023-07-31T10:12:49;18.02;90.66
66740;DHT22;53653;52.188;8.602;2023-07-31T10:15:18;18.07;90.36
66740;DHT22;53653;52.188;8.602;2023-07-31T10:17:47;18.06;90.62
66740;DHT22;53653;52.188;8.602;2023-07-31T10:20:14;18.02;90.57
66740;DHT22;53653;52.188;8.602;2023-07-31T10:22:42;17.93;91.23
66740;DHT22;53653;52.188;8.602;2023-07-31T10:25:09;17.89;91.14
66740;DHT22;53653;52.188;8.602;2023-07-31T10:27:36;17.90;91.29
66740;DHT22;53653;52.188;8.602;2023-07-31T10:30:05;17.81;91.14
66740;DHT22;53653;52.188;8.602;2023-07-31T10:32:33;17.83;91.33
66740;DHT22;53653;52.188;8.602;2023-07-31T10:35:01;17.83;91.22
66740;DHT22;53653;52.188;8.602;2023-07-31T10:37:29;17.96;91.07
66740;DHT22;53653;52.188;8.602;2023-07-31T10:40:06;18.07;90.51
66740;DHT22;53653;52.188;8.602;2023-07-31T10:45:06;18.12;91.34
66740;DHT22;53653;52.188;8.602;2023-07-31T10:47:42;18.14;91.04
66740;DHT22;53653;52.188;8.602;2023-07-31T10:50:18;18.04;90.96
66740;DHT22;53653;52.188;8.602;2023-07-31T10:52:49;18.00;91.23
66740;DHT22;53653;52.188;8.602;2023-07-31T10:55:23;18.14;91.07
66740;DHT22;53653;52.188;8.602;2023-07-31T10:57:50;18.27;91.15
66740;DHT22;53653;52.188;8.602;2023-07-31T11:03:03;18.14;91.66
66740;DHT22;53653;52.188;8.602;2023-07-31T11:06:01;18.10;91.40
66740;DHT22;53653;52.188;8.602;2023-07-31T11:08:49;18.10;91.12
66740;DHT22;53653;52.188;8.602;2023-07-31T11:11:19;18.09;90.74
66740;DHT22;53653;52.188;8.602;2023-07-31T11:13:46;18.18;91.22
66740;DHT22;53653;52.188;8.602;2023-07-31T11:16:13;18.13;90.47
66740;DHT22;53653;52.188;8.602;2023-07-31T11:18:42;18.13;90.10
66740;DHT22;53653;52.188;8.602;2023-07-31T11:21:15;18.03;90.20
66740;DHT22;53653;52.188;8.602;2023-07-31T11:23:45;18.02;91.07
66740;DHT22;53653;52.188;8.602;2023-07-31T11:26:11;17.92;90.76
66740;DHT22;53653;52.188;8.602;2023-07-31T11:28:38;17.87;91.21
66740;DHT22;53653;52.188;8.602;2023-07-31T11:31:04;17.92;91.37
66740;DHT22;53653;52.188;8.602;2023-07-31T11:33:30;17.92;91.49
66740;DHT22;53653;52.188;8.602;2023-07-31T11:35:56;18.04;91.50
66740;DHT22;53653;52.188;8.602;2023-07-31T11:40:49;17.99;91.57
66740;DHT22;53653;52.188;8.602;2023-07-31T11:43:15;18.09;91.70
66740;DHT22;53653;52.188;8.602;2023-07-31T11:45:51;18.04;91.21
66740;DHT22;53653;52.188;8.602;2023-07-31T11:48:35;18.07;91.49
66740;DHT22;53653;52.188;8.602;2023-07-31T11:51:06;18.07;91.51
66740;DHT22;53653;52.188;8.602;2023-07-31T11:56:06;18.09;90.80
66740;DHT22;53653;52.188;8.602;2023-07-31T11:58:34;18.04;90.84
66740;DHT22;53653;52.188;8.602;2023-07-31T12:01:00;18.10;91.04
66740;DHT22;53653;52.188;8.602;2023-07-31T12:03:26;18.04;90.53
66740;DHT22;53653;52.188;8.602;2023-07-31T12:05:55;18.17;91.04
66740;DHT22;53653;52.188;8.602;2023-07-31T12:08:23;18.10;91.00
66740;DHT22;53653;52.188;8.602;2023-07-31T12:10:53;18.12;91.70
66740;DHT22;53653;52.188;8.602;2023-07-31T12:13:24;18.34;91.07
66740;DHT22;53653;52.188;8.602;2023-07-31T12:15:55;18.50;90.84
66740;DHT22;53653;52.188;8.602;2023-07-31T12:18:22;18.69;89.85
66740;DHT22;53653;52.188;8.602;2023-07-31T12:20:53;18.74;89.71
66740;DHT22;53653;52.188;8.602;2023-07-31T12:23:21;18.79;89.86
66740;DHT22;53653;52.188;8.602;2023-07-31T12:28:28;18.75;89.77
66740;DHT22;53653;52.188;8.602;2023-07-31T12:30:57;18.76;90.22
66740;DHT22;53653;52.188;8.602;2023-07-31T12:33:34;18.68;89.84
66740;DHT22;53653;52.188;8.602;2023-07-31T12:36:01;18.72;90.17
66740;DHT22;53653;52.188;8.602;2023-07-31T12:38:27;18.88;89.71
66740;DHT22;53653;52.188;8.602;2023-07-31T12:40:53;18.79;89.63
66740;DHT22;53653;52.188;8.602;2023-07-31T12:43:18;18.69;90.69
66740;DHT22;53653;52.188;8.602;2023-07-31T12:45:44;18.69;90.11
66740;DHT22;53653;52.188;8.602;2023-07-31T12:48:09;18.67;89.85
66740;DHT22;53653;52.188;8.602;2023-07-31T12:50:35;18.67;90.46
66740;DHT22;53653;52.188;8.602;2023-07-31T12:53:02;18.58;90.97
66740;DHT22;53653;52.188;8.602;2023-07-31T12:55:28;18.53;91.04
66740;DHT22;53653;52.188;8.602;2023-07-31T12:57:55;18.47;91.38
66740;DHT22;53653;52.188;8.602;2023-07-31T13:00:21;18.47;91.23
66740;DHT22;53653;52.188;8.602;2023-07-31T13:02:46;18.40;91.54
66740;DHT22;53653;52.188;8.602;2023-07-31T13:05:12;18.41;91.31
66740;DHT22;53653;52.188;8.602;2023-07-31T13:07:38;18.34;91.40
66740;DHT22;53653;52.188;8.602;2023-07-31T13:10:05;18.24;91.07
66740;DHT22;53653;52.188;8.602;2023-07-31T13:12:30;18.09;91.64
66740;DHT22;53653;52.188;8.602;2023-07-31T13:14:56;18.10;91.75
66740;DHT22;53653;52.188;8.602;2023-07-31T13:17:21;18.18;91.85
66740;DHT22;53653;52.188;8.602;2023-07-31T13:19:47;18.14;91.63
66740;DHT22;53653;52.188;8.602;2023-07-31T13:22:12;18.22;91.53
66740;DHT22;53653;52.188;8.602;2023-07-31T13:24:41;18.24;91.24
66740;DHT22;53653;52.188;8.602;2023-07-31T13:27:07;18.20;91.08
66740;DHT22;53653;52.188;8.602;2023-07-31T13:29:32;18.27;91.05
66740;DHT22;53653;52.188;8.602;2023-07-31T13:31:58;18.22;90.97
66740;DHT22;53653;52.188;8.602;2023-07-31T13:34:23;18.24;91.28
66740;DHT22;53653;52.188;8.602;2023-07-31T13:36:49;18.32;91.07
66740;DHT22;53653;52.188;8.602;2023-07-31T13:39:14;18.40;90.59
66740;DHT22;53653;52.188;8.602;2023-07-31T13:41:39;18.44;90.07
66740;DHT22;53653;52.188;8.602;2023-07-31T13:44:05;18.57;89.82
66740;DHT22;53653;52.188;8.602;2023-07-31T13:46:30;18.69;89.77
66740;DHT22;53653;52.188;8.602;2023-07-31T13:48:58;18.76;89.23
66740;DHT22;53653;52.188;8.602;2023-07-31T13:51:25;18.84;88.99
66740;DHT22;53653;52.188;8.602;2023-07-31T13:53:50;18.87;88.64
66740;DHT22;53653;52.188;8.602;2023-07-31T13:56:16;18.99;88.49
66740;DHT22;53653;52.188;8.602;2023-07-31T13:58:41;19.01;87.95
66740;DHT22;53653;52.188;8.602;2023-07-31T14:01:07;19.29;87.75
66740;DHT22;53653;52.188;8.602;2023-07-31T14:03:32;19.33;87.73
66740;DHT22;53653;52.188;8.602;2023-07-31T14:05:58;19.47;86.88
66740;DHT22;53653;52.188;8.602;2023-07-31T14:08:23;19.37;86.92
66740;DHT22;53653;52.188;8.602;2023-07-31T14:10:49;19.46;86.44
66740;DHT22;53653;52.188;8.602;2023-07-31T14:13:14;19.45;85.61
66740;DHT22;53653;52.188;8.602;2023-07-31T14:15:43;19.46;86.54
66740;DHT22;53653;52.188;8.602;2023-07-31T14:18:09;19.53;86.50
66740;DHT22;53653;52.188;8.602;2023-07-31T14:20:35;19.56;85.73
66740;DHT22;53653;52.188;8.602;2023-07-31T14:23:01;19.46;85.49
66740;DHT22;53653;52.188;8.602;2023-07-31T14:25:27;19.46;85.61
66740;DHT22;53653;52.188;8.602;2023-07-31T14:27:52;19.37;85.67
66740;DHT22;53653;52.188;8.602;2023-07-31T14:30:18;19.24;85.78
66740;DHT22;53653;52.188;8.602;2023-07-31T14:32:44;19.20;85.72
66740;DHT22;53653;52.188;8.602;2023-07-31T14:35:09;19.10;86.18
66740;DHT22;53653;52.188;8.602;2023-07-31T14:37:43;19.03;86.07
66740;DHT22;53653;52.188;8.602;2023-07-31T14:40:10;19.12;86.08
66740;DHT22;53653;52.188;8.602;2023-07-31T14:42:37;19.03;85.98
66740;DHT22;53653;52.188;8.602;2023-07-31T14:45:03;19.02;86.04
66740;DHT22;53653;52.188;8.602;2023-07-31T14:47:29;19.01;86.03
66740;DHT22;53653;52.188;8.602;2023-07-31T14:49:56;19.03;85.82
66740;DHT22;53653;52.188;8.602;2023-07-31T14:52:21;19.12;85.45
66740;DHT22;53653;52.188;8.602;2023-07-31T14:54:47;19.10;85.20
66740;DHT22;53653;52.188;8.602;2023-07-31T14:57:12;19.29;85.11
66740;DHT22;53653;52.188;8.602;2023-07-31T14:59:38;19.33;84.77
66740;DHT22;53653;52.188;8.602;2023-07-31T15:02:03;19.36;84.98
66740;DHT22;53653;52.188;8.602;2023-07-31T15:04:29;19.45;84.70
66740;DHT22;53653;52.188;8.602;2023-07-31T15:06:55;19.49;84.09
66740;DHT22;53653;52.188;8.602;2023-07-31T15:09:20;19.73;83.76
66740;DHT22;53653;52.188;8.602;2023-07-31T15:11:47;19.82;83.36
66740;DHT22;53653;52.188;8.602;2023-07-31T15:14:12;19.77;83.35
66740;DHT22;53653;52.188;8.602;2023-07-31T15:16:38;19.78;83.34
66740;DHT22;53653;52.188;8.602;2023-07-31T15:19:03;19.85;83.33
66740;DHT22;53653;52.188;8.602;2023-07-31T15:21:29;19.91;82.91
66740;DHT22;53653;52.188;8.602;2023-07-31T15:23:55;19.88;83.08
66740;DHT22;53653;52.188;8.602;2023-07-31T15:26:20;19.92;83.17
66740;DHT22;53653;52.188;8.602;2023-07-31T15:28:49;20.02;82.91
66740;DHT22;53653;52.188;8.602;2023-07-31T15:31:15;19.87;83.00
66740;DHT22;53653;52.188;8.602;2023-07-31T15:33:40;19.84;83.47
66740;DHT22;53653;52.188;8.602;2023-07-31T15:36:06;19.70;83.57
66740;DHT22;53653;52.188;8.602;2023-07-31T15:38:32;19.61;84.10
66740;DHT22;53653;52.188;8.602;2023-07-31T15:40:57;19.54;84.33
66740;DHT22;53653;52.188;8.602;2023-07-31T15:43:23;19.54;84.14
66740;DHT22;53653;52.188;8.602;2023-07-31T15:45:48;19.53;83.85